Time;durP1;ratioP1;P1;durP2;ratioP2;P2;SDS_P1;SDS_P2;PMS_P1;PMS_P2;Temp;Humidity;BMP_temperature;BMP_pressure;BME280_temperature;BME280_humidity;BME280_pressure;Samples;Min_cycle;Max_cycle;Signal;HPM_P1;HPM_P2
2024/02/11 00:00:13;;;;;;;3.08;1.15;;;;;;;;;;2057755;28;20042;-50
2024/02/11 00:01:18;;;;;;;2.78;0.73;;;;;;;;;;2057704;28;20026;-48
2024/02/11 00:02:19;;;;;;;2.88;1.00;;;;;;;;;;2058196;28;20061;-47
2024/02/11 00:03:27;;;;;;;4.25;0.93;;;;;;;;;;2060304;28;20023;-47
2024/02/11 00:04:28;;;;;;;3.78;1.00;;;;;;;;;;2057672;28;20022;-48
2024/02/11 00:05:30;;;;;;;1.30;0.80;;;;;;;;;;2053064;28;20494;-48
2024/02/11 00:06:31;;;;;;;2.72;0.88;;;;;;;;;;2053434;28;20031;-48
2024/02/11 00:07:33;;;;;;;2.13;0.68;;;;;;;;;;2061267;28;20092;-48
2024/02/11 00:08:34;;;;;;;4.25;0.95;;;;;;;;;;2054543;28;20030;-48
2024/02/11 00:09:36;;;;;;;2.58;1.00;;;;;;;;;;2057105;28;20034;-48
2024/02/11 00:10:37;;;;;;;2.30;0.73;;;;;;;;;;2056735;28;20027;-48
2024/02/11 00:11:38;;;;;;;3.55;0.73;;;;;;;;;;2057079;28;20415;-49
2024/02/11 00:12:40;;;;;;;2.05;0.73;;;;;;;;;;2057779;28;20019;-48
2024/02/11 00:13:41;;;;;;;2.25;0.70;;;;;;;;;;2058578;28;20339;-47
2024/02/11 00:14:44;;;;;;;2.60;0.82;;;;;;;;;;2057401;28;20030;-50
2024/02/11 00:15:46;;;;;;;2.22;0.93;;;;;;;;;;2058455;28;20072;-48
2024/02/11 00:16:48;;;;;;;2.85;1.00;;;;;;;;;;2057799;28;20098;-48
2024/02/11 00:17:49;;;;;;;1.65;0.88;;;;;;;;;;2054496;28;20051;-48
2024/02/11 00:18:51;;;;;;;2.22;0.88;;;;;;;;;;2057928;28;20019;-47
2024/02/11 00:19:52;;;;;;;2.15;0.93;;;;;;;;;;2060588;28;20050;-48
2024/02/11 00:20:57;;;;;;;2.65;1.08;;;;;;;;;;2061365;28;20023;-48
2024/02/11 00:22:01;;;;;;;3.22;0.85;;;;;;;;;;2057708;28;20652;-48
2024/02/11 00:23:04;;;;;;;4.85;1.23;;;;;;;;;;2057405;28;20019;-48
2024/02/11 00:24:05;;;;;;;4.00;1.10;;;;;;;;;;2058435;28;20031;-48
2024/02/11 00:25:10;;;;;;;2.03;1.08;;;;;;;;;;2057714;28;20126;-48
2024/02/11 00:26:11;;;;;;;2.80;0.80;;;;;;;;;;2057598;28;20453;-48
2024/02/11 00:27:13;;;;;;;2.75;0.70;;;;;;;;;;2057615;28;20015;-49
2024/02/11 00:28:14;;;;;;;1.98;0.90;;;;;;;;;;2054835;28;20024;-48
2024/02/11 00:29:17;;;;;;;2.92;0.98;;;;;;;;;;2057545;28;20035;-48
2024/02/11 00:30:23;;;;;;;1.55;0.90;;;;;;;;;;2057729;28;20039;-49
2024/02/11 00:31:25;;;;;;;2.97;1.00;;;;;;;;;;2054347;28;20084;-49
2024/02/11 00:32:26;;;;;;;2.40;0.77;;;;;;;;;;2052909;28;20015;-49
2024/02/11 00:33:27;;;;;;;2.97;0.95;;;;;;;;;;2056723;28;20014;-49
2024/02/11 00:34:31;;;;;;;2.28;1.05;;;;;;;;;;2055268;28;20037;-50
2024/02/11 00:35:34;;;;;;;3.67;1.10;;;;;;;;;;2051435;28;20031;-49
2024/02/11 00:36:36;;;;;;;2.72;0.75;;;;;;;;;;2053490;28;20082;-49
2024/02/11 00:37:38;;;;;;;3.53;0.88;;;;;;;;;;2054709;28;20034;-50
2024/02/11 00:38:39;;;;;;;3.03;1.00;;;;;;;;;;2056297;28;20534;-50
2024/02/11 00:39:40;;;;;;;4.60;1.00;;;;;;;;;;2049619;28;20032;-49
2024/02/11 00:40:42;;;;;;;3.33;0.85;;;;;;;;;;2052497;28;20069;-48
2024/02/11 00:41:45;;;;;;;3.63;0.90;;;;;;;;;;2057553;28;20389;-47
2024/02/11 00:42:46;;;;;;;2.80;0.88;;;;;;;;;;2056980;28;20027;-47
2024/02/11 00:43:50;;;;;;;2.13;0.90;;;;;;;;;;2057169;28;20574;-48
2024/02/11 00:44:52;;;;;;;3.28;1.20;;;;;;;;;;2056610;28;20474;-50
2024/02/11 00:45:53;;;;;;;1.42;0.80;;;;;;;;;;2061272;28;20026;-49
2024/02/11 00:46:54;;;;;;;3.00;1.10;;;;;;;;;;2058508;28;20023;-49
2024/02/11 00:47:55;;;;;;;3.25;0.82;;;;;;;;;;2056624;28;20516;-48
2024/02/11 00:48:59;;;;;;;1.77;0.60;;;;;;;;;;2057231;28;20098;-49
2024/02/11 00:50:00;;;;;;;2.95;0.90;;;;;;;;;;2057150;28;20630;-48
2024/02/11 00:51:01;;;;;;;2.88;1.02;;;;;;;;;;2057410;28;20022;-49
2024/02/11 00:52:03;;;;;;;3.97;0.85;;;;;;;;;;2055512;28;20113;-49
2024/02/11 00:53:05;;;;;;;3.80;0.90;;;;;;;;;;2057536;28;20058;-48
2024/02/11 00:54:06;;;;;;;3.60;0.85;;;;;;;;;;2057272;28;20026;-48
2024/02/11 00:55:08;;;;;;;3.47;0.90;;;;;;;;;;2057171;28;20046;-48
2024/02/11 00:56:09;;;;;;;2.75;1.05;;;;;;;;;;2064833;28;20466;-48
2024/02/11 00:57:10;;;;;;;3.15;0.80;;;;;;;;;;2063927;28;20018;-49
2024/02/11 00:58:12;;;;;;;3.85;1.10;;;;;;;;;;2056505;28;20026;-48
2024/02/11 00:59:14;;;;;;;2.20;1.00;;;;;;;;;;2056732;28;20037;-48
2024/02/11 01:00:16;;;;;;;3.72;0.82;;;;;;;;;;2057368;28;20019;-47
2024/02/11 01:01:18;;;;;;;2.72;1.08;;;;;;;;;;2057484;28;20030;-47
2024/02/11 01:02:19;;;;;;;4.55;1.00;;;;;;;;;;2058740;28;20023;-47
2024/02/11 01:03:20;;;;;;;4.63;1.00;;;;;;;;;;2060755;28;20421;-47
2024/02/11 01:04:21;;;;;;;3.35;0.77;;;;;;;;;;2056699;28;20031;-48
2024/02/11 01:05:23;;;;;;;3.90;0.70;;;;;;;;;;2057015;28;20336;-47
2024/02/11 01:06:24;;;;;;;3.20;1.48;;;;;;;;;;2054605;28;20085;-47
2024/02/11 01:07:25;;;;;;;5.15;1.20;;;;;;;;;;2047846;29;20024;-48
2024/02/11 01:08:27;;;;;;;3.47;0.90;;;;;;;;;;2047924;28;20370;-48
2024/02/11 01:09:28;;;;;;;1.85;0.73;;;;;;;;;;2056402;28;20051;-47
2024/02/11 01:10:31;;;;;;;3.92;0.88;;;;;;;;;;2057265;28;20478;-48
2024/02/11 01:11:33;;;;;;;3.50;0.88;;;;;;;;;;2057264;28;20057;-49
2024/02/11 01:12:34;;;;;;;4.50;0.90;;;;;;;;;;2058315;28;20019;-48
2024/02/11 01:13:35;;;;;;;2.95;0.75;;;;;;;;;;2057081;28;20459;-48
2024/02/11 01:14:37;;;;;;;1.83;0.63;;;;;;;;;;2057035;28;20051;-48
2024/02/11 01:15:38;;;;;;;3.30;0.73;;;;;;;;;;2057238;28;20018;-47
2024/02/11 01:16:39;;;;;;;5.10;1.20;;;;;;;;;;2054054;28;20497;-48
2024/02/11 01:17:41;;;;;;;1.95;0.90;;;;;;;;;;2061430;28;20026;-48
2024/02/11 01:18:46;;;;;;;3.72;1.00;;;;;;;;;;2056229;28;20038;-48
2024/02/11 01:19:47;;;;;;;2.58;0.90;;;;;;;;;;2057177;28;20104;-47
2024/02/11 01:20:50;;;;;;;3.45;0.80;;;;;;;;;;2056555;28;20051;-48
2024/02/11 01:21:53;;;;;;;3.08;0.90;;;;;;;;;;2048852;29;20016;-48
2024/02/11 01:22:54;;;;;;;5.72;1.10;;;;;;;;;;2053635;28;20105;-47
2024/02/11 01:23:55;;;;;;;3.55;1.10;;;;;;;;;;2057338;28;20449;-47
2024/02/11 01:24:57;;;;;;;3.92;0.88;;;;;;;;;;2062304;28;20031;-47
2024/02/11 01:25:58;;;;;;;4.30;1.17;;;;;;;;;;2061228;28;20739;-47
2024/02/11 01:27:00;;;;;;;3.08;0.90;;;;;;;;;;2056707;28;20064;-47
2024/02/11 01:28:01;;;;;;;2.58;0.60;;;;;;;;;;2057520;28;20026;-47
2024/02/11 01:29:04;;;;;;;5.65;0.95;;;;;;;;;;2058074;28;20563;-49
2024/02/11 01:30:07;;;;;;;6.95;0.90;;;;;;;;;;2056118;28;20414;-47
2024/02/11 01:31:08;;;;;;;1.60;0.90;;;;;;;;;;2054013;28;20173;-47
2024/02/11 01:32:10;;;;;;;3.25;0.80;;;;;;;;;;2056653;28;20466;-48
2024/02/11 01:33:11;;;;;;;2.95;0.90;;;;;;;;;;2053848;28;20366;-48
2024/02/11 01:34:12;;;;;;;3.03;0.75;;;;;;;;;;2057099;28;20065;-48
2024/02/11 01:35:14;;;;;;;3.85;0.93;;;;;;;;;;2056414;28;21009;-48
2024/02/11 01:36:15;;;;;;;2.50;0.93;;;;;;;;;;2056508;28;20053;-48
2024/02/11 01:37:16;;;;;;;4.13;1.40;;;;;;;;;;2056056;28;20041;-48
2024/02/11 01:38:18;;;;;;;2.92;0.98;;;;;;;;;;2048472;28;20110;-48
2024/02/11 01:39:19;;;;;;;3.03;1.00;;;;;;;;;;2049625;28;20027;-48
2024/02/11 01:40:21;;;;;;;3.53;0.90;;;;;;;;;;2056488;28;20030;-47
2024/02/11 01:41:22;;;;;;;2.30;0.90;;;;;;;;;;2057162;28;20068;-48
2024/02/11 01:42:24;;;;;;;4.47;1.15;;;;;;;;;;2057017;28;20034;-47
2024/02/11 01:43:25;;;;;;;2.38;0.90;;;;;;;;;;2054680;28;20057;-48
2024/02/11 01:44:27;;;;;;;3.53;0.95;;;;;;;;;;2056415;28;20087;-47
2024/02/11 01:45:28;;;;;;;5.13;1.02;;;;;;;;;;2057189;28;20548;-47
2024/02/11 01:46:29;;;;;;;2.28;0.80;;;;;;;;;;2053278;28;20398;-46
2024/02/11 01:47:31;;;;;;;2.22;0.80;;;;;;;;;;2048901;28;20017;-47
2024/02/11 01:48:33;;;;;;;4.93;1.23;;;;;;;;;;2055972;28;20023;-47
2024/02/11 01:49:34;;;;;;;2.55;0.80;;;;;;;;;;2056987;28;20137;-48
2024/02/11 01:50:37;;;;;;;3.85;1.00;;;;;;;;;;2051289;28;20051;-47
2024/02/11 01:51:42;;;;;;;2.97;0.77;;;;;;;;;;2054996;28;20042;-47
2024/02/11 01:52:44;;;;;;;3.20;0.85;;;;;;;;;;2057128;28;20467;-48
2024/02/11 01:53:48;;;;;;;3.17;0.85;;;;;;;;;;2056261;28;20043;-47
2024/02/11 01:54:49;;;;;;;2.30;0.93;;;;;;;;;;2057544;28;20069;-47
2024/02/11 01:55:51;;;;;;;2.72;0.90;;;;;;;;;;2057262;28;20027;-47
2024/02/11 01:56:52;;;;;;;3.38;0.80;;;;;;;;;;2052990;28;20012;-46
2024/02/11 01:57:54;;;;;;;4.60;1.00;;;;;;;;;;2052530;28;20429;-47
2024/02/11 01:58:55;;;;;;;1.60;0.90;;;;;;;;;;2049483;28;20039;-47
2024/02/11 01:59:57;;;;;;;2.72;1.10;;;;;;;;;;2054220;28;20089;-47
2024/02/11 02:00:59;;;;;;;1.65;0.73;;;;;;;;;;2056970;28;20677;-47
2024/02/11 02:02:00;;;;;;;3.25;0.77;;;;;;;;;;2056801;28;20026;-47
2024/02/11 02:03:02;;;;;;;5.40;0.57;;;;;;;;;;2055916;28;20041;-48
2024/02/11 02:04:04;;;;;;;2.88;0.70;;;;;;;;;;2055419;28;20062;-47
2024/02/11 02:05:07;;;;;;;2.85;1.00;;;;;;;;;;2049092;28;20035;-47
2024/02/11 02:06:08;;;;;;;3.20;0.90;;;;;;;;;;2056421;28;20136;-48
2024/02/11 02:07:10;;;;;;;1.52;0.70;;;;;;;;;;2056599;28;20034;-47
2024/02/11 02:08:12;;;;;;;2.72;0.77;;;;;;;;;;2056704;28;20034;-48
2024/02/11 02:09:14;;;;;;;1.60;0.75;;;;;;;;;;2056262;28;20038;-47
2024/02/11 02:10:16;;;;;;;4.13;0.73;;;;;;;;;;2056310;28;20031;-49
2024/02/11 02:11:17;;;;;;;3.80;1.13;;;;;;;;;;2056930;28;20038;-47
2024/02/11 02:12:20;;;;;;;3.25;1.00;;;;;;;;;;2057194;28;20007;-47
2024/02/11 02:13:23;;;;;;;3.50;1.10;;;;;;;;;;2056361;28;20482;-48
2024/02/11 02:14:24;;;;;;;4.95;1.10;;;;;;;;;;2056621;28;20363;-47
2024/02/11 02:15:26;;;;;;;2.75;0.75;;;;;;;;;;2056046;28;20015;-49
2024/02/11 02:16:27;;;;;;;7.30;1.00;;;;;;;;;;2056518;28;20027;-49
2024/02/11 02:17:28;;;;;;;6.07;1.17;;;;;;;;;;2056451;28;20015;-49
2024/02/11 02:18:34;;;;;;;4.53;1.05;;;;;;;;;;2064275;28;20090;-48
2024/02/11 02:19:36;;;;;;;3.50;1.05;;;;;;;;;;2056520;28;20367;-49
2024/02/11 02:20:38;;;;;;;3.22;0.70;;;;;;;;;;2063881;28;20023;-48
2024/02/11 02:21:47;;;;;;;5.47;1.35;;;;;;;;;;2064126;28;20121;-48
2024/02/11 02:22:48;;;;;;;3.55;0.95;;;;;;;;;;2056836;28;20023;-48
2024/02/11 02:23:50;;;;;;;4.07;1.02;;;;;;;;;;2058007;28;20412;-48
2024/02/11 02:24:51;;;;;;;1.63;0.75;;;;;;;;;;2056173;28;20557;-48
2024/02/11 02:25:52;;;;;;;2.17;0.75;;;;;;;;;;2056401;28;20464;-49
2024/02/11 02:26:53;;;;;;;2.70;0.70;;;;;;;;;;2056938;28;20362;-48
2024/02/11 02:27:55;;;;;;;3.80;0.70;;;;;;;;;;2054592;28;20030;-48
2024/02/11 02:28:56;;;;;;;2.97;0.98;;;;;;;;;;2051167;28;20735;-49
2024/02/11 02:29:57;;;;;;;2.97;0.88;;;;;;;;;;2058321;28;20483;-48
2024/02/11 02:30:59;;;;;;;2.95;0.95;;;;;;;;;;2056099;28;20065;-49
2024/02/11 02:32:00;;;;;;;2.15;0.88;;;;;;;;;;2056342;28;20031;-48
2024/02/11 02:33:01;;;;;;;3.08;0.88;;;;;;;;;;2056630;28;20014;-48
2024/02/11 02:34:02;;;;;;;2.08;0.75;;;;;;;;;;2056832;28;20042;-48
2024/02/11 02:35:04;;;;;;;3.53;0.75;;;;;;;;;;2056106;28;20015;-48
2024/02/11 02:36:05;;;;;;;9.07;1.23;;;;;;;;;;2055847;28;20050;-48
2024/02/11 02:37:07;;;;;;;3.28;0.73;;;;;;;;;;2050578;28;20042;-48
2024/02/11 02:38:08;;;;;;;3.10;0.73;;;;;;;;;;2053476;28;20011;-49
2024/02/11 02:39:13;;;;;;;5.38;1.02;;;;;;;;;;2052702;28;20101;-48
2024/02/11 02:40:14;;;;;;;3.65;0.80;;;;;;;;;;2062308;28;20457;-48
2024/02/11 02:41:15;;;;;;;4.50;1.20;;;;;;;;;;2058382;28;20034;-49
2024/02/11 02:42:16;;;;;;;3.20;1.00;;;;;;;;;;2059570;28;20030;-47
2024/02/11 02:43:18;;;;;;;1.65;0.77;;;;;;;;;;2048600;28;20451;-48
2024/02/11 02:44:19;;;;;;;4.43;1.40;;;;;;;;;;2055625;28;20022;-48
2024/02/11 02:45:21;;;;;;;2.70;0.80;;;;;;;;;;2056606;28;20023;-49
2024/02/11 02:46:22;;;;;;;3.17;0.90;;;;;;;;;;2053663;28;20370;-48
2024/02/11 02:47:23;;;;;;;3.58;1.00;;;;;;;;;;2056802;28;20026;-47
2024/02/11 02:48:24;;;;;;;4.68;1.05;;;;;;;;;;2055848;28;20019;-47
2024/02/11 02:49:26;;;;;;;2.95;1.00;;;;;;;;;;2058337;28;20033;-48
2024/02/11 02:50:28;;;;;;;3.65;1.02;;;;;;;;;;2056704;28;20052;-48
2024/02/11 02:51:29;;;;;;;3.47;1.00;;;;;;;;;;2056460;28;20032;-49
2024/02/11 02:52:30;;;;;;;2.63;0.80;;;;;;;;;;2056680;28;20023;-48
2024/02/11 02:53:32;;;;;;;3.00;1.08;;;;;;;;;;2056681;28;20018;-48
2024/02/11 02:54:33;;;;;;;3.00;0.60;;;;;;;;;;2055858;28;20073;-48
2024/02/11 02:55:34;;;;;;;3.33;0.60;;;;;;;;;;2055969;28;20035;-49
2024/02/11 02:56:36;;;;;;;3.42;1.38;;;;;;;;;;2056687;28;20467;-47
2024/02/11 02:57:37;;;;;;;3.83;1.00;;;;;;;;;;2056573;28;20018;-48
2024/02/11 02:58:39;;;;;;;3.22;0.60;;;;;;;;;;2056683;28;20019;-48
2024/02/11 02:59:40;;;;;;;4.10;0.90;;;;;;;;;;2056537;28;20478;-49
2024/02/11 03:00:41;;;;;;;5.47;1.00;;;;;;;;;;2054424;28;20118;-49
2024/02/11 03:01:43;;;;;;;5.68;1.45;;;;;;;;;;2048909;28;20019;-48
2024/02/11 03:02:45;;;;;;;3.67;1.20;;;;;;;;;;2056578;28;20105;-48
2024/02/11 03:03:47;;;;;;;2.30;0.60;;;;;;;;;;2056815;28;20031;-48
2024/02/11 03:04:51;;;;;;;2.88;0.90;;;;;;;;;;2056304;28;20158;-48
2024/02/11 03:05:52;;;;;;;5.60;1.17;;;;;;;;;;2055473;28;20479;-47
2024/02/11 03:06:55;;;;;;;2.53;0.80;;;;;;;;;;2055510;28;20019;-48
2024/02/11 03:07:57;;;;;;;5.05;0.80;;;;;;;;;;2053739;28;20078;-48
2024/02/11 03:08:58;;;;;;;3.65;1.15;;;;;;;;;;2056453;28;20026;-49
2024/02/11 03:10:00;;;;;;;1.90;0.65;;;;;;;;;;2063086;28;20051;-48
2024/02/11 03:11:02;;;;;;;3.47;0.80;;;;;;;;;;2060693;28;20011;-48
2024/02/11 03:12:03;;;;;;;3.13;0.75;;;;;;;;;;2056870;28;20026;-48
2024/02/11 03:13:04;;;;;;;2.20;0.85;;;;;;;;;;2056856;28;20011;-48
2024/02/11 03:14:07;;;;;;;4.20;1.15;;;;;;;;;;2054226;28;20077;-49
2024/02/11 03:15:10;;;;;;;2.03;0.95;;;;;;;;;;2052603;28;20021;-49
2024/02/11 03:16:11;;;;;;;5.65;0.88;;;;;;;;;;2056996;28;20085;-48
2024/02/11 03:17:12;;;;;;;3.70;0.60;;;;;;;;;;2056818;28;20034;-50
2024/02/11 03:18:14;;;;;;;1.67;0.80;;;;;;;;;;2056747;28;20019;-49
2024/02/11 03:19:16;;;;;;;3.60;0.98;;;;;;;;;;2052362;28;20042;-49
2024/02/11 03:20:17;;;;;;;4.25;1.48;;;;;;;;;;2053889;28;20054;-50
2024/02/11 03:21:19;;;;;;;2.97;0.80;;;;;;;;;;2048800;28;20047;-49
2024/02/11 03:22:21;;;;;;;4.30;0.85;;;;;;;;;;2051653;28;20019;-50
2024/02/11 03:23:22;;;;;;;2.22;0.80;;;;;;;;;;2048327;28;20054;-50
2024/02/11 03:24:23;;;;;;;5.38;1.00;;;;;;;;;;2056067;28;20048;-50
2024/02/11 03:25:24;;;;;;;2.53;0.73;;;;;;;;;;2059988;28;20029;-50
2024/02/11 03:26:26;;;;;;;3.78;0.80;;;;;;;;;;2048219;28;20455;-50
2024/02/11 03:27:28;;;;;;;2.53;0.80;;;;;;;;;;2056429;28;20033;-50
2024/02/11 03:28:30;;;;;;;4.18;1.17;;;;;;;;;;2058182;28;20378;-48
2024/02/11 03:29:32;;;;;;;2.25;0.70;;;;;;;;;;2058620;28;20517;-48
2024/02/11 03:30:35;;;;;;;2.22;0.50;;;;;;;;;;2058267;28;20033;-48
2024/02/11 03:31:36;;;;;;;2.92;0.80;;;;;;;;;;2058237;28;20090;-47
2024/02/11 03:32:38;;;;;;;1.58;0.77;;;;;;;;;;2050511;28;20019;-47
2024/02/11 03:33:39;;;;;;;4.65;0.80;;;;;;;;;;2050319;28;20042;-50
2024/02/11 03:34:40;;;;;;;4.13;0.75;;;;;;;;;;2050198;29;20031;-47
2024/02/11 03:35:41;;;;;;;2.60;0.88;;;;;;;;;;2050415;28;20078;-47
2024/02/11 03:36:43;;;;;;;3.60;1.10;;;;;;;;;;2051544;28;20027;-47
2024/02/11 03:37:44;;;;;;;3.53;0.65;;;;;;;;;;2058153;28;20027;-47
2024/02/11 03:38:45;;;;;;;2.28;0.77;;;;;;;;;;2058003;28;20026;-47
2024/02/11 03:39:49;;;;;;;3.88;0.73;;;;;;;;;;2056588;28;20021;-49
2024/02/11 03:40:54;;;;;;;3.95;0.75;;;;;;;;;;2050153;28;20482;-49
2024/02/11 03:41:55;;;;;;;3.35;0.80;;;;;;;;;;2053704;28;20026;-48
2024/02/11 03:42:56;;;;;;;1.95;0.68;;;;;;;;;;2058250;28;20375;-48
2024/02/11 03:43:58;;;;;;;2.17;0.82;;;;;;;;;;2058032;28;20107;-48
2024/02/11 03:44:59;;;;;;;2.10;0.77;;;;;;;;;;2058066;28;20029;-48
2024/02/11 03:46:02;;;;;;;2.80;0.70;;;;;;;;;;2058782;28;20058;-48
2024/02/11 03:47:03;;;;;;;4.55;1.08;;;;;;;;;;2058021;28;20039;-49
2024/02/11 03:48:07;;;;;;;2.33;0.60;;;;;;;;;;2057855;28;20027;-48
2024/02/11 03:49:08;;;;;;;3.90;0.60;;;;;;;;;;2058019;28;20022;-48
2024/02/11 03:50:10;;;;;;;2.80;0.73;;;;;;;;;;2057981;28;20442;-48
2024/02/11 03:51:11;;;;;;;4.30;1.10;;;;;;;;;;2057475;28;20042;-48
2024/02/11 03:52:15;;;;;;;4.85;0.73;;;;;;;;;;2057786;28;20097;-48
2024/02/11 03:53:20;;;;;;;2.00;0.88;;;;;;;;;;2056947;28;20027;-48
2024/02/11 03:54:23;;;;;;;6.10;0.93;;;;;;;;;;2056601;28;20023;-47
2024/02/11 03:55:24;;;;;;;2.53;0.60;;;;;;;;;;2055392;28;20039;-47
2024/02/11 03:56:28;;;;;;;3.95;0.80;;;;;;;;;;2057162;28;20038;-47
2024/02/11 03:57:29;;;;;;;2.38;0.50;;;;;;;;;;2057899;28;20030;-48
2024/02/11 03:58:32;;;;;;;3.30;0.82;;;;;;;;;;2056286;28;20018;-47
2024/02/11 03:59:33;;;;;;;3.78;0.73;;;;;;;;;;2056476;28;20023;-47
2024/02/11 04:00:35;;;;;;;2.60;0.88;;;;;;;;;;2053155;28;20176;-48
2024/02/11 04:01:36;;;;;;;4.82;0.93;;;;;;;;;;2055647;28;20077;-48
2024/02/11 04:02:37;;;;;;;2.90;0.60;;;;;;;;;;2061512;28;20027;-47
2024/02/11 04:03:39;;;;;;;4.32;0.73;;;;;;;;;;2062695;28;20361;-47
2024/02/11 04:04:40;;;;;;;3.80;0.82;;;;;;;;;;2060773;28;20098;-48
2024/02/11 04:05:43;;;;;;;3.00;0.65;;;;;;;;;;2057376;28;20026;-48
2024/02/11 04:06:44;;;;;;;2.35;0.68;;;;;;;;;;2057387;28;20027;-48
2024/02/11 04:07:46;;;;;;;4.43;0.80;;;;;;;;;;2056944;28;20094;-48
2024/02/11 04:08:50;;;;;;;5.15;0.80;;;;;;;;;;2057011;28;20018;-49
2024/02/11 04:09:52;;;;;;;1.90;0.70;;;;;;;;;;2057589;28;20073;-46
2024/02/11 04:10:54;;;;;;;1.80;0.57;;;;;;;;;;2057773;28;20023;-47
2024/02/11 04:11:56;;;;;;;2.40;0.60;;;;;;;;;;2058008;28;20063;-48
2024/02/11 04:12:58;;;;;;;5.75;0.95;;;;;;;;;;2057577;28;20031;-47
2024/02/11 04:13:59;;;;;;;5.90;0.90;;;;;;;;;;2057317;28;20025;-47
2024/02/11 04:15:02;;;;;;;2.10;0.60;;;;;;;;;;2057820;28;20041;-55
2024/02/11 04:16:15;;;;;;;1.65;0.50;;;;;;;;;;2057303;28;20042;-47
2024/02/11 04:17:20;;;;;;;3.40;0.65;;;;;;;;;;2057402;28;20061;-51
2024/02/11 04:18:23;;;;;;;3.10;0.60;;;;;;;;;;2057885;28;20485;-47
2024/02/11 04:19:25;;;;;;;1.27;0.68;;;;;;;;;;2064226;28;20098;-47
2024/02/11 04:20:31;;;;;;;1.95;0.80;;;;;;;;;;2064672;28;20105;-47
2024/02/11 04:21:36;;;;;;;3.83;0.55;;;;;;;;;;2057774;28;20027;-48
2024/02/11 04:22:38;;;;;;;1.95;0.50;;;;;;;;;;2056742;28;20078;-48
2024/02/11 04:23:39;;;;;;;2.05;0.70;;;;;;;;;;2056836;28;20019;-47
2024/02/11 04:24:45;;;;;;;3.65;0.80;;;;;;;;;;2056900;28;20027;-48
2024/02/11 04:25:47;;;;;;;2.17;0.55;;;;;;;;;;2057525;28;20038;-48
2024/02/11 04:26:53;;;;;;;1.85;0.50;;;;;;;;;;2057046;28;20026;-48
2024/02/11 04:27:54;;;;;;;2.35;0.60;;;;;;;;;;2057939;28;20038;-47
2024/02/11 04:28:55;;;;;;;3.90;0.52;;;;;;;;;;2057025;28;20030;-47
2024/02/11 04:29:58;;;;;;;3.67;1.00;;;;;;;;;;2055734;28;20046;-48
2024/02/11 04:31:00;;;;;;;3.78;0.70;;;;;;;;;;2056737;28;20466;-48
2024/02/11 04:32:01;;;;;;;6.90;0.98;;;;;;;;;;2055313;28;20462;-48
2024/02/11 04:33:02;;;;;;;3.42;0.52;;;;;;;;;;2057718;28;20049;-48
2024/02/11 04:34:03;;;;;;;4.95;0.80;;;;;;;;;;2056713;28;20081;-48
2024/02/11 04:35:05;;;;;;;3.20;0.65;;;;;;;;;;2057585;28;20035;-48
2024/02/11 04:36:07;;;;;;;1.70;0.60;;;;;;;;;;2056278;28;20402;-48
2024/02/11 04:37:08;;;;;;;2.50;0.75;;;;;;;;;;2053839;28;20014;-49
2024/02/11 04:38:12;;;;;;;4.80;0.82;;;;;;;;;;2057570;28;20089;-48
2024/02/11 04:39:15;;;;;;;4.45;1.13;;;;;;;;;;2052816;28;20110;-48
2024/02/11 04:40:17;;;;;;;2.50;0.70;;;;;;;;;;2056465;28;20031;-48
2024/02/11 04:41:19;;;;;;;2.92;0.95;;;;;;;;;;2057635;28;20441;-48
2024/02/11 04:42:23;;;;;;;5.05;0.80;;;;;;;;;;2057436;28;20346;-53
2024/02/11 04:43:24;;;;;;;2.60;0.90;;;;;;;;;;2057433;28;20413;-53
2024/02/11 04:44:30;;;;;;;3.47;1.08;;;;;;;;;;2057543;28;20497;-52
2024/02/11 04:45:32;;;;;;;2.40;0.90;;;;;;;;;;2056824;28;20109;-52
2024/02/11 04:46:33;;;;;;;1.58;0.90;;;;;;;;;;2057693;28;20042;-53
2024/02/11 04:47:35;;;;;;;1.95;0.82;;;;;;;;;;2057367;28;20030;-54
2024/02/11 04:48:36;;;;;;;4.65;1.30;;;;;;;;;;2057004;28;20026;-49
2024/02/11 04:49:39;;;;;;;5.00;1.30;;;;;;;;;;2056982;28;20397;-49
2024/02/11 04:50:40;;;;;;;3.72;1.27;;;;;;;;;;2056701;28;20003;-49
2024/02/11 04:51:42;;;;;;;4.13;1.08;;;;;;;;;;2056845;28;20449;-49
2024/02/11 04:52:48;;;;;;;2.75;0.65;;;;;;;;;;2051974;28;20130;-49
2024/02/11 04:53:52;;;;;;;4.07;1.10;;;;;;;;;;2056722;28;20076;-49
2024/02/11 04:54:56;;;;;;;3.83;1.15;;;;;;;;;;2058930;28;20019;-49
2024/02/11 04:55:58;;;;;;;1.88;1.17;;;;;;;;;;2056678;28;20486;-48
2024/02/11 04:57:00;;;;;;;4.32;1.27;;;;;;;;;;2056476;28;20557;-49
2024/02/11 04:58:04;;;;;;;3.05;0.75;;;;;;;;;;2054006;28;20408;-49
2024/02/11 04:59:07;;;;;;;4.32;1.15;;;;;;;;;;2050198;28;20015;-50
2024/02/11 05:00:23;;;;;;;3.03;1.05;;;;;;;;;;2056548;28;20034;-49
2024/02/11 05:01:24;;;;;;;4.03;0.93;;;;;;;;;;2057401;28;20015;-49
2024/02/11 05:02:25;;;;;;;4.47;1.02;;;;;;;;;;2057376;28;20451;-49
2024/02/11 05:03:27;;;;;;;3.72;1.17;;;;;;;;;;2057314;28;20533;-49
2024/02/11 05:04:29;;;;;;;3.53;1.20;;;;;;;;;;2056966;28;20019;-49
2024/02/11 05:05:31;;;;;;;2.95;1.02;;;;;;;;;;2057397;28;20023;-49
2024/02/11 05:06:33;;;;;;;3.53;0.90;;;;;;;;;;2056718;28;20030;-49
2024/02/11 05:07:34;;;;;;;3.35;1.02;;;;;;;;;;2056519;28;20014;-49
2024/02/11 05:08:35;;;;;;;7.65;1.00;;;;;;;;;;2056697;28;20014;-48
2024/02/11 05:09:37;;;;;;;6.82;1.27;;;;;;;;;;2052346;28;20035;-48
2024/02/11 05:10:40;;;;;;;3.42;1.02;;;;;;;;;;2053136;28;20673;-48
2024/02/11 05:11:42;;;;;;;2.58;1.15;;;;;;;;;;2048844;29;20023;-48
2024/02/11 05:12:44;;;;;;;2.90;0.70;;;;;;;;;;2044948;28;20007;-50
2024/02/11 05:13:45;;;;;;;5.55;1.20;;;;;;;;;;2056014;28;20382;-50
2024/02/11 05:14:48;;;;;;;3.70;1.40;;;;;;;;;;2055984;28;20019;-49
2024/02/11 05:15:50;;;;;;;4.20;1.10;;;;;;;;;;2056368;28;20030;-50
2024/02/11 05:16:52;;;;;;;6.45;1.23;;;;;;;;;;2059771;28;20030;-49
2024/02/11 05:17:54;;;;;;;5.00;1.00;;;;;;;;;;2057183;28;20018;-49
2024/02/11 05:18:56;;;;;;;4.15;0.98;;;;;;;;;;2057114;28;20121;-49
2024/02/11 05:19:57;;;;;;;4.43;0.80;;;;;;;;;;2059201;28;20101;-49
2024/02/11 05:20:58;;;;;;;3.35;0.68;;;;;;;;;;2057275;28;20018;-49
2024/02/11 05:22:02;;;;;;;2.63;0.70;;;;;;;;;;2057180;28;20027;-55
2024/02/11 05:23:08;;;;;;;3.60;0.68;;;;;;;;;;2057249;28;20045;-54
2024/02/11 05:24:11;;;;;;;1.70;0.80;;;;;;;;;;2057216;28;20023;-55
2024/02/11 05:25:19;;;;;;;4.18;1.02;;;;;;;;;;2055096;28;20082;-50
2024/02/11 05:26:21;;;;;;;4.03;1.33;;;;;;;;;;2055980;28;20065;-54
2024/02/11 05:27:23;;;;;;;3.08;1.10;;;;;;;;;;2055270;28;20030;-53
2024/02/11 05:28:24;;;;;;;4.05;0.95;;;;;;;;;;2056456;28;20086;-53
2024/02/11 05:29:26;;;;;;;6.00;1.00;;;;;;;;;;2056971;28;20114;-54
2024/02/11 05:30:28;;;;;;;3.55;0.82;;;;;;;;;;2056414;28;20083;-54
2024/02/11 05:31:30;;;;;;;5.75;1.05;;;;;;;;;;2056914;28;20062;-54
2024/02/11 05:32:31;;;;;;;2.95;0.73;;;;;;;;;;2056464;28;20485;-52
2024/02/11 05:33:34;;;;;;;3.75;0.90;;;;;;;;;;2056450;28;20101;-52
2024/02/11 05:34:39;;;;;;;6.80;0.93;;;;;;;;;;2056700;28;20034;-53
2024/02/11 05:35:40;;;;;;;4.45;0.85;;;;;;;;;;2049400;28;20019;-54
2024/02/11 05:36:43;;;;;;;3.70;0.90;;;;;;;;;;2053993;28;20027;-50
2024/02/11 05:37:44;;;;;;;3.47;1.00;;;;;;;;;;2056641;28;20552;-49
2024/02/11 05:38:47;;;;;;;5.13;0.90;;;;;;;;;;2055634;28;20011;-48
2024/02/11 05:39:48;;;;;;;3.70;1.10;;;;;;;;;;2050805;28;20168;-50
2024/02/11 05:40:50;;;;;;;3.22;0.80;;;;;;;;;;2056706;28;20037;-49
2024/02/11 05:41:51;;;;;;;3.92;0.80;;;;;;;;;;2054835;28;20026;-49
2024/02/11 05:42:53;;;;;;;4.28;1.00;;;;;;;;;;2059136;28;20254;-49
2024/02/11 05:43:54;;;;;;;3.10;0.90;;;;;;;;;;2053662;28;20081;-48
2024/02/11 05:44:56;;;;;;;3.90;1.00;;;;;;;;;;2051307;28;20035;-49
2024/02/11 05:45:58;;;;;;;4.25;0.80;;;;;;;;;;2055722;28;20018;-49
2024/02/11 05:47:00;;;;;;;3.40;0.98;;;;;;;;;;2055922;28;20053;-50
2024/02/11 05:48:01;;;;;;;3.13;0.73;;;;;;;;;;2053929;28;20371;-49
2024/02/11 05:49:05;;;;;;;6.78;0.80;;;;;;;;;;2053801;28;20019;-50
2024/02/11 05:50:08;;;;;;;4.25;0.90;;;;;;;;;;2056175;28;20178;-49
2024/02/11 05:51:09;;;;;;;2.92;0.90;;;;;;;;;;2055699;28;20041;-49
2024/02/11 05:52:10;;;;;;;4.25;0.70;;;;;;;;;;2056211;28;20031;-49
2024/02/11 05:53:11;;;;;;;1.98;0.70;;;;;;;;;;2056793;28;20019;-48
2024/02/11 05:54:16;;;;;;;5.97;1.13;;;;;;;;;;2051043;28;20027;-50
2024/02/11 05:55:18;;;;;;;2.95;0.80;;;;;;;;;;2053652;28;20497;-48
2024/02/11 05:56:19;;;;;;;2.35;0.82;;;;;;;;;;2057065;28;20031;-49
2024/02/11 05:57:21;;;;;;;5.85;0.80;;;;;;;;;;2055617;28;20011;-48
2024/02/11 05:58:22;;;;;;;2.65;0.70;;;;;;;;;;2053123;28;20123;-48
2024/02/11 05:59:24;;;;;;;2.25;0.90;;;;;;;;;;2051454;28;20110;-48
2024/02/11 06:00:29;;;;;;;2.70;0.70;;;;;;;;;;2058355;28;20061;-48
2024/02/11 06:01:31;;;;;;;3.00;0.70;;;;;;;;;;2052671;28;20031;-48
2024/02/11 06:02:32;;;;;;;2.83;0.52;;;;;;;;;;2050064;28;20023;-48
2024/02/11 06:03:35;;;;;;;2.97;0.90;;;;;;;;;;2055702;28;20034;-48
2024/02/11 06:04:36;;;;;;;4.53;0.95;;;;;;;;;;2049793;28;20027;-49
2024/02/11 06:05:38;;;;;;;4.13;0.80;;;;;;;;;;2056083;28;20081;-48
2024/02/11 06:06:39;;;;;;;3.42;1.10;;;;;;;;;;2055395;28;20051;-48
2024/02/11 06:07:41;;;;;;;4.05;1.55;;;;;;;;;;2052902;28;20498;-48
2024/02/11 06:08:42;;;;;;;3.72;0.85;;;;;;;;;;2060898;28;20454;-48
2024/02/11 06:09:43;;;;;;;5.57;1.15;;;;;;;;;;2063538;28;20513;-48
2024/02/11 06:10:46;;;;;;;2.15;0.80;;;;;;;;;;2053330;28;20039;-49
2024/02/11 06:11:48;;;;;;;4.68;0.93;;;;;;;;;;2052821;28;20435;-49